WEATHER DATA

TODAY
Time Temp. Dewp. Hum. Wind dir Wind speed Wind gust Bar. 1h Prec. 24h Prec.
00:09 2 -2.2 72 0 0 1019.3 0.0000 0.0000
00:20 2.2 -1.9 73 0 0 1019.4 0.0000 0.0000
00:30 1.9 -2.3 72 0 0 1019.3 0.0000 0.0000
00:39 1.5 -2.5 73 0 0 1019.4 0.0000 0.0000
00:49 1.9 -1.5 77 0 0 1019.5 0.0000 0.0000
01:00 2.8 -0.9 76 0 0 1019.7 0.0000 0.0000
01:10 3.9 -0.4 73 0 0 1019.7 0.0000 0.0000
01:20 3.5 -1.1 71 0 0 1019.7 0.0000 0.0000
01:30 3.9 -0.8 71 0 0 1019.7 0.0000 0.0000
01:40 4 -0.9 70 0 0 1019.7 0.0000 0.0000
01:50 3.9 -1.1 69 0 0 1019.5 0.0000 0.0000
02:00 4.4 -1 67 0 0 1019.5 0.0000 0.0000
02:11 4.1 -1.3 67 0 0 1019.5 0.0000 0.0000
02:20 3.9 -1.5 67 0 0 1019.7 0.0000 0.0000
02:30 4 -1.4 67 0 0 1019.7 0.0000 0.0000
02:41 4.1 -1.5 66 0 0 1019.5 0.0000 0.0000
02:51 4.1 -1.5 66 0 0 1019.5 0.0000 0.0000
03:00 3.9 -1.8 65 0 0 1019.5 0.0000 0.0000
03:10 4.1 -1.5 66 0 0 1019.4 0.0000 0.0000
03:21 4.2 -1.6 65 0 0 1019.4 0.0000 0.0000
03:31 4.4 -1.4 65 0 0 1019.4 0.0000 0.0000
03:41 4.5 -1.5 64 0 0 1019.3 0.0000 0.0000
03:51 4.2 -1.8 64 0 0 1019.2 0.0000 0.0000
04:01 4.1 -1.7 65 0 0 1019.2 0.0000 0.0000
04:11 3.8 -1.9 65 0 0 1019.2 0.0000 0.0000
04:21 3.5 -2.2 65 0 0 1019.2 0.0000 0.0000
04:32 3.3 -2.2 66 0 0 1019.2 0.0000 0.0000
04:41 3.2 -2.2 66 0 0 1019.3 0.0000 0.0000
04:51 3.2 -2.1 67 0 0 1019.4 0.0000 0.0000
05:01 3.2 -2.1 67 0 0 1019.4 0.0000 0.0000
05:12 3.3 -2 67 0 0 1019.5 0.0000 0.0000
05:22 3.3 -2 67 0 0 1019.7 0.0000 0.0000
05:31 3.3 -2 67 0 0 1019.5 0.0000 0.0000
05:42 3.6 -1.7 67 0 0 1019.5 0.0000 0.0000
05:52 3.7 -1.8 66 0 0 1019.5 0.0000 0.0000
06:02 4.2 -1.6 65 0 0 1019.5 0.0000 0.0000
06:12 4 -1.7 65 0 0 1019.5 0.0000 0.0000
06:22 3.8 -1.9 65 0 0 1019.7 0.0000 0.0000
06:31 3.7 -1.8 66 0 0 1019.8 0.0000 0.0000
06:42 3.7 -1.8 66 0 0 1019.8 0.0000 0.0000
06:53 3.8 -1.7 66 0 0 1019.8 0.0000 0.0000
07:02 3.7 -1.8 66 0 0 1019.8 0.0000 0.0000
07:11 3.9 -1.5 67 0 0 1019.9 0.0000 0.0000
07:22 4 -1.6 66 0 0 1019.9 0.0000 0.0000
07:31 3.9 -1.5 67 0 0 1020 0.0000 0.0000
07:42 3.9 -1.3 68 0 0 1020.1 0.0000 0.0000
07:51 4.1 -1.1 68 0 0 1020.2 0.0000 0.0000
08:02 4.4 -1 67 0 0 1020.3 0.0000 0.0000
08:12 5 -0.5 67 0 0 1020.4 0.0000 0.0000
08:23 5.6 -0.4 65 0 0 1020.5 0.0000 0.0000
08:28 5.9 -0.3 64 0 0 1020.5 0.0000 0.0000
08:51 7.3 0.3 61 0 0 1020.6 0.0000 0.0000
09:03 7.9 0.6 60 0 0 1020.6 0.0000 0.0000
09:13 8.3 0.8 59 0 0 1020.6 0.0000 0.0000
09:23 8.8 1 58 0 0 1020.7 0.0000 0.0000
09:33 8.9 0.9 57 0 0 1020.7 0.0000 0.0000
09:43 8.9 1.1 58 0 0 1020.9 0.0000 0.0000
09:54 9.1 1.3 58 0 0 1020.9 0.0000 0.0000
10:04 9.8 1.7 57 0 0 1021 0.0000 0.0000
10:13 10.1 2 57 0 0 1021 0.0000 0.0000
10:24 10.2 1.8 56 0 0 1021.2 0.0000 0.0000
10:34 10.1 2 57 0 0 1021.3 0.0000 0.0000
10:44 10.6 2.2 56 0 0 1021.3 0.0000 0.0000
10:54 10.7 2.8 58 0 0 1021.4 0.0000 0.0000
11:04 11.7 3.2 56 0 0 1021.3 0.0000 0.0000
11:14 12.1 3.6 56 0 0 1021.4 0.0000 0.0000
11:24 12 3.2 55 0 0 1021.5 0.0000 0.0000
11:33 11.8 3.1 55 0 0 1021.5 0.0000 0.0000
11:44 11.8 3.1 55 0 0 1021.6 0.0000 0.0000
11:54 12.3 3.5 55 0 0 1021.5 0.0000 0.0000
12:04 12.5 3.7 55 0 0 1021.5 0.0000 0.0000
12:14 12.7 3.9 55 0 0 1021.4 0.0000 0.0000
12:24 12.6 3.8 55 0 0 1021.3 0.0000 0.0000
12:34 12.9 4.1 55 0 0 1021.2 0.0000 0.0000
12:45 13 4.4 56 0 0 1021.3 0.0000 0.0000
12:54 12.2 3.7 56 0 0 1021.1 0.0000 0.0000
13:04 12.9 4.3 56 0 0 1020.9 0.0000 0.0000
13:15 13.3 4.5 55 0 0 1020.9 0.0000 0.0000
13:25 13.9 5.3 56 0 0 1020.7 0.0000 0.0000
13:34 14.5 5.3 54 0 0 1020.7 0.0000 0.0000
13:44 14.7 5 52 0 0 1020.6 0.0000 0.0000
13:55 14.6 5.1 53 0 0 1020.5 0.0000 0.0000
14:04 13.8 4.7 54 0 0 1020.5 0.0000 0.0000
14:14 12.7 3.9 55 0 0 1020.5 0.0000 0.0000
14:25 12 3.8 57 0 0 1020.4 0.0000 0.0000
14:35 11.6 3.4 57 0 0 1020.4 0.0000 0.0000
14:44 11.9 3.7 57 0 0 1020.3 0.0000 0.0000
15:05 12 3.5 56 0 0 1020.4 0.0000 0.0000
15:14 12.2 3.9 57 0 0 1020.4 0.0000 0.0000
15:24 12.8 4.3 56 0 0 1020.3 0.0000 0.0000
15:35 13.2 4.4 55 0 0 1020.2 0.0000 0.0000
15:45 13.3 4.5 55 0 0 1020.2 0.0000 0.0000
15:54 13.5 4.6 55 0 0 1020.2 0.0000 0.0000
16:05 14.2 5 54 0 0 1020.1 0.0000 0.0000
16:15 13.6 4.5 54 0 0 1020.1 0.0000 0.0000
16:25 13.2 4.4 55 0 0 1020.1 0.0000 0.0000
16:34 12.3 3.8 56 0 0 1020 0.0000 0.0000
16:45 11.4 3.4 58 0 0 1020 0.0000 0.0000
16:55 10.7 3.3 60 0 0 1020 0.0000 0.0000
17:04 10.1 2.9 61 0 0 1020.1 0.0000 0.0000
17:15 9.5 2.8 63 0 0 1020.1 0.0000 0.0000
17:24 8.9 2.7 65 0 0 1020.1 0.0000 0.0000
17:35 8.5 2.5 66 0 0 1020.1 0.0000 0.0000
17:42 8.2 2.4 67 0 0 1020 0.0000 0.0000
17:55 7.7 2.2 68 0 0 1020.1 0.0000 0.0000
17:58 7.6 2.1 68 0 0 1020.2 0.0000 0.0000
18:15 7 1.9 70 0 0 1020.3 0.0000 0.0000

DAY STATISTIC

2019-02-19
TEMPERATURE
AVERAGE
7.7
HIGH
14.7
13:44
LOW
1.5
00:39
PRESSURE
AVERAGE
1020.2
HIGH
1021.6
11:44
LOW
1019.2
03:51
DEWPOINT
AVERAGE
0.9
HIGH
5.3
13:25
LOW
-2.5
00:39
HUMIDITY
AVERAGE
62
HIGH
77
00:49
LOW
52
13:44
WIND SPEED
AVERAGE
0.0
HIGH
0.0
17:23
WIND GUST
AVERAGE
0.0
HIGH
0.0
17:23
WIND DIRECTION
PREVAILING
%
PRECIPITATION
RAIN HOUR
0.0
RAIN DAY
0.0
TEMPERATURE (°C)
LOW
1.5
HIGH
14.7
AVERAGE
7.7
PRESSURE (hpa)
LOW
1019.2
HIGH
1021.6
AVERAGE
1020.2
DEVICE